createdAt,value
2019-03-30T00:00:15.819Z,11.01
2019-03-30T00:01:15.903Z,10.99
2019-03-30T00:02:15.856Z,10.97
2019-03-30T00:03:15.859Z,10.94
2019-03-30T00:04:15.808Z,10.94
2019-03-30T00:05:15.850Z,10.92
2019-03-30T00:06:15.824Z,10.91
2019-03-30T00:07:15.839Z,10.88
2019-03-30T00:08:15.801Z,10.88
2019-03-30T00:09:15.930Z,10.89
2019-03-30T00:10:15.792Z,10.85
2019-03-30T00:11:15.863Z,10.84
2019-03-30T00:12:15.876Z,10.85
2019-03-30T00:13:15.805Z,10.82
2019-03-30T00:14:15.886Z,10.81
2019-03-30T00:15:15.849Z,10.79
2019-03-30T00:16:15.826Z,10.79
2019-03-30T00:17:15.803Z,10.78
2019-03-30T00:18:15.867Z,10.76
2019-03-30T00:19:15.796Z,10.73
2019-03-30T00:20:15.827Z,10.72
2019-03-30T00:21:15.784Z,10.72
2019-03-30T00:22:15.890Z,10.71
2019-03-30T00:23:15.821Z,10.67
2019-03-30T00:24:17.237Z,10.62
2019-03-30T00:25:15.840Z,10.6
2019-03-30T00:26:15.894Z,10.6
2019-03-30T00:27:15.772Z,10.59
2019-03-30T00:28:15.808Z,10.58
2019-03-30T00:29:16.048Z,10.54
2019-03-30T00:30:19.718Z,10.56
2019-03-30T00:31:15.819Z,10.5
2019-03-30T00:32:15.863Z,10.51
2019-03-30T00:33:15.760Z,10.52
2019-03-30T00:34:15.815Z,10.52
2019-03-30T00:35:15.866Z,10.52
2019-03-30T00:36:15.769Z,10.51
2019-03-30T00:37:16.667Z,10.52
2019-03-30T00:38:15.784Z,10.5
2019-03-30T00:39:15.776Z,10.48
2019-03-30T00:40:15.839Z,10.45
2019-03-30T00:41:15.866Z,10.46
2019-03-30T00:42:15.827Z,10.47
2019-03-30T00:43:15.826Z,10.47
2019-03-30T00:44:15.756Z,10.46
2019-03-30T00:45:15.798Z,10.43
2019-03-30T00:46:15.814Z,10.46
2019-03-30T00:47:15.763Z,10.43
2019-03-30T00:48:15.787Z,10.43
2019-03-30T00:49:15.764Z,10.44
2019-03-30T00:50:15.949Z,10.42
2019-03-30T00:51:15.745Z,10.41
2019-03-30T00:52:15.776Z,10.39
2019-03-30T00:53:15.813Z,10.37
2019-03-30T00:54:15.756Z,10.4
2019-03-30T00:55:15.838Z,10.41
2019-03-30T00:56:15.823Z,10.4
2019-03-30T00:57:15.753Z,10.42
2019-03-30T00:58:15.750Z,10.41
2019-03-30T00:59:15.859Z,10.42
2019-03-30T01:00:15.792Z,10.41
2019-03-30T01:01:15.896Z,10.4
2019-03-30T01:02:15.768Z,10.4
2019-03-30T01:03:15.792Z,10.4
2019-03-30T01:04:15.732Z,10.42
2019-03-30T01:05:15.837Z,10.41
2019-03-30T01:06:15.712Z,10.38
2019-03-30T01:07:15.715Z,10.4
2019-03-30T01:08:15.787Z,10.38
2019-03-30T01:09:15.713Z,10.37
2019-03-30T01:10:15.756Z,10.35
2019-03-30T01:11:15.785Z,10.34
2019-03-30T01:12:15.812Z,10.31
2019-03-30T01:13:15.819Z,10.27
2019-03-30T01:14:15.749Z,10.28
2019-03-30T01:15:15.705Z,10.27
2019-03-30T01:16:15.856Z,10.26
2019-03-30T01:17:15.731Z,10.25
2019-03-30T01:18:15.719Z,10.27
2019-03-30T01:19:15.715Z,10.24
2019-03-30T01:20:15.736Z,10.27
2019-03-30T01:21:15.766Z,10.27
2019-03-30T01:22:15.929Z,10.24
2019-03-30T01:23:15.734Z,10.25
2019-03-30T01:24:15.730Z,10.24
2019-03-30T01:25:15.908Z,10.24
2019-03-30T01:26:15.717Z,10.22
2019-03-30T01:27:15.751Z,10.23
2019-03-30T01:28:15.716Z,10.22
2019-03-30T01:29:15.696Z,10.22
2019-03-30T01:30:23.948Z,10.19
2019-03-30T01:31:15.714Z,10.2
2019-03-30T01:32:15.682Z,10.18
2019-03-30T01:33:15.720Z,10.17
2019-03-30T01:34:15.931Z,10.15
2019-03-30T01:35:16.638Z,10.11
2019-03-30T01:36:15.890Z,10.13
2019-03-30T01:37:15.871Z,10.11
2019-03-30T01:38:15.763Z,10.11
2019-03-30T01:39:16.497Z,10.11
2019-03-30T01:40:15.742Z,10.11
2019-03-30T01:41:15.726Z,10.09
2019-03-30T01:42:15.725Z,10.07
2019-03-30T01:43:15.770Z,10.07
2019-03-30T01:44:15.744Z,10.05
2019-03-30T01:45:15.729Z,10.07
2019-03-30T01:46:15.700Z,10.05
2019-03-30T01:47:15.690Z,10.04
2019-03-30T01:48:15.654Z,10.05
2019-03-30T01:49:15.689Z,10.04
2019-03-30T01:50:18.682Z,10.05
2019-03-30T01:51:15.673Z,10.04
2019-03-30T01:52:15.690Z,10.03
2019-03-30T01:53:15.714Z,10.01
2019-03-30T01:54:15.749Z,10
2019-03-30T01:55:15.763Z,9.99
2019-03-30T01:56:15.809Z,9.97
2019-03-30T01:57:15.691Z,9.97
2019-03-30T01:58:15.710Z,9.94
2019-03-30T01:59:16.749Z,9.96
2019-03-30T02:00:15.642Z,9.92
2019-03-30T02:01:16.065Z,9.91
2019-03-30T02:02:15.691Z,9.9
2019-03-30T02:03:15.630Z,9.84
2019-03-30T02:04:15.676Z,9.84
2019-03-30T02:05:15.635Z,9.84
2019-03-30T02:06:15.635Z,9.81
2019-03-30T02:07:15.667Z,9.79
2019-03-30T02:08:15.710Z,9.78
2019-03-30T02:09:15.738Z,9.74
2019-03-30T02:10:15.744Z,9.72
2019-03-30T02:11:15.696Z,9.72
2019-03-30T02:12:15.609Z,9.71
2019-03-30T02:13:15.685Z,9.72
2019-03-30T02:14:15.687Z,9.72
2019-03-30T02:15:15.626Z,9.73
2019-03-30T02:16:15.603Z,9.72
2019-03-30T02:17:15.758Z,9.7
2019-03-30T02:18:15.618Z,9.68
2019-03-30T02:19:15.629Z,9.67
2019-03-30T02:20:15.670Z,9.64
2019-03-30T02:21:15.631Z,9.62
2019-03-30T02:22:15.670Z,9.62
2019-03-30T02:23:15.740Z,9.64
2019-03-30T02:24:15.592Z,9.61
2019-03-30T02:25:15.619Z,9.6
2019-03-30T02:26:15.649Z,9.56
2019-03-30T02:27:15.628Z,9.55
2019-03-30T02:28:15.611Z,9.54
2019-03-30T02:29:15.639Z,9.53
2019-03-30T02:30:15.594Z,9.49
2019-03-30T02:31:15.686Z,9.49
2019-03-30T02:32:15.624Z,9.49
2019-03-30T02:33:15.722Z,9.47
2019-03-30T02:34:15.611Z,9.47
2019-03-30T02:35:15.646Z,9.44
2019-03-30T02:36:15.825Z,9.42
2019-03-30T02:37:15.803Z,9.4
2019-03-30T02:38:15.611Z,9.38
2019-03-30T02:39:16.947Z,9.37
2019-03-30T02:40:15.616Z,9.36
2019-03-30T02:41:15.662Z,9.36
2019-03-30T02:42:15.602Z,9.34
2019-03-30T02:43:15.633Z,9.28
2019-03-30T02:44:15.645Z,9.27
2019-03-30T02:45:15.683Z,9.24
2019-03-30T02:46:15.687Z,9.23
2019-03-30T02:47:15.589Z,9.23
2019-03-30T02:48:15.626Z,9.22
2019-03-30T02:49:15.638Z,9.18
2019-03-30T02:50:15.648Z,9.18
2019-03-30T02:51:15.660Z,9.15
2019-03-30T02:52:15.671Z,9.11
2019-03-30T02:53:15.604Z,9.13
2019-03-30T02:54:15.574Z,9.1
2019-03-30T02:55:15.607Z,9.1
2019-03-30T02:56:15.592Z,9.05
2019-03-30T02:57:15.594Z,9.05
2019-03-30T02:58:15.635Z,8.98
2019-03-30T02:59:15.686Z,8.95
2019-03-30T03:00:15.638Z,8.97
2019-03-30T03:01:15.698Z,8.96
2019-03-30T03:02:15.661Z,8.92
2019-03-30T03:03:15.761Z,8.9
2019-03-30T03:04:15.570Z,8.91
2019-03-30T03:05:15.593Z,8.89
2019-03-30T03:06:15.617Z,8.88
2019-03-30T03:07:15.625Z,8.83
2019-03-30T03:08:15.587Z,8.82
2019-03-30T03:09:15.687Z,8.79
2019-03-30T03:10:15.611Z,8.82
2019-03-30T03:11:15.709Z,8.82
2019-03-30T03:12:15.636Z,8.78
2019-03-30T03:13:15.577Z,8.77
2019-03-30T03:14:15.580Z,8.73
2019-03-30T03:15:15.569Z,8.72
2019-03-30T03:16:15.575Z,8.71
2019-03-30T03:17:15.618Z,8.7
2019-03-30T03:18:15.580Z,8.67
2019-03-30T03:19:15.535Z,8.65
2019-03-30T03:20:15.638Z,8.66
2019-03-30T03:21:15.616Z,8.62
2019-03-30T03:22:17.447Z,8.59
2019-03-30T03:23:15.667Z,8.53
2019-03-30T03:24:15.546Z,8.52
2019-03-30T03:25:15.574Z,8.51
2019-03-30T03:26:15.577Z,8.48
2019-03-30T03:27:15.541Z,8.47
2019-03-30T03:28:15.591Z,8.42
2019-03-30T03:29:15.595Z,8.41
2019-03-30T03:30:15.640Z,8.4
2019-03-30T03:31:15.692Z,8.38
2019-03-30T03:32:15.622Z,8.35
2019-03-30T03:33:15.783Z,8.3
2019-03-30T03:34:15.637Z,8.26
2019-03-30T03:35:15.546Z,8.22
2019-03-30T03:36:15.835Z,8.26
2019-03-30T03:37:15.613Z,8.22
2019-03-30T03:38:15.636Z,8.25
2019-03-30T03:39:15.585Z,8.25
2019-03-30T03:40:15.573Z,8.22
2019-03-30T03:41:15.622Z,8.22
2019-03-30T03:42:15.649Z,8.17
2019-03-30T03:43:15.603Z,8.12
2019-03-30T03:44:15.551Z,8.08
2019-03-30T03:45:15.687Z,8.05
2019-03-30T03:46:15.579Z,8.09
2019-03-30T03:47:15.520Z,8.08
2019-03-30T03:48:15.535Z,8.06
2019-03-30T03:49:16.812Z,8.01
2019-03-30T03:50:15.546Z,7.98
2019-03-30T03:51:27.098Z,8.01
2019-03-30T03:52:15.520Z,7.98
2019-03-30T03:53:16.048Z,7.99
2019-03-30T03:54:15.484Z,7.99
2019-03-30T03:55:15.583Z,7.98
2019-03-30T03:56:15.592Z,7.98
2019-03-30T03:57:15.507Z,7.97
2019-03-30T03:58:15.624Z,7.96
2019-03-30T03:59:15.626Z,7.97
2019-03-30T04:00:15.543Z,7.96
2019-03-30T04:01:16.403Z,7.95
2019-03-30T04:02:15.551Z,7.96
2019-03-30T04:03:15.533Z,7.95
2019-03-30T04:04:15.553Z,7.93
2019-03-30T04:05:16.202Z,7.91
2019-03-30T04:06:15.514Z,7.87
2019-03-30T04:07:15.562Z,7.84
2019-03-30T04:08:15.545Z,7.89
2019-03-30T04:09:15.465Z,7.86
2019-03-30T04:10:15.480Z,7.83
2019-03-30T04:11:15.612Z,7.81
2019-03-30T04:12:15.528Z,7.81
2019-03-30T04:13:15.552Z,7.78
2019-03-30T04:14:15.496Z,7.8
2019-03-30T04:15:15.566Z,7.82
2019-03-30T04:16:15.582Z,7.78
2019-03-30T04:17:15.497Z,7.77
2019-03-30T04:18:15.524Z,7.73
2019-03-30T04:19:15.494Z,7.72
2019-03-30T04:20:15.524Z,7.75
2019-03-30T04:21:15.484Z,7.72
2019-03-30T04:22:15.520Z,7.71
2019-03-30T04:23:15.572Z,7.69
2019-03-30T04:24:15.504Z,7.66
2019-03-30T04:25:15.526Z,7.65
2019-03-30T04:26:15.499Z,7.64
2019-03-30T04:27:15.661Z,7.66
2019-03-30T04:28:15.565Z,7.63
2019-03-30T04:29:15.551Z,7.63
2019-03-30T04:30:15.538Z,7.63
2019-03-30T04:31:15.496Z,7.64
2019-03-30T04:32:15.457Z,7.62
2019-03-30T04:33:15.467Z,7.62
2019-03-30T04:34:15.506Z,7.61
2019-03-30T04:35:15.554Z,7.64
2019-03-30T04:36:15.501Z,7.61
2019-03-30T04:37:15.547Z,7.59
2019-03-30T04:38:15.482Z,7.57
2019-03-30T04:39:15.505Z,7.57
2019-03-30T04:40:15.494Z,7.57
2019-03-30T04:41:15.417Z,7.55
2019-03-30T04:42:15.457Z,7.54
2019-03-30T04:43:15.475Z,7.49
2019-03-30T04:44:17.302Z,7.46
2019-03-30T04:45:15.501Z,7.45
2019-03-30T04:46:15.477Z,7.45
2019-03-30T04:47:15.442Z,7.44
2019-03-30T04:48:15.462Z,7.43
2019-03-30T04:49:15.915Z,7.4
2019-03-30T04:50:15.531Z,7.4
2019-03-30T04:51:15.424Z,7.41
2019-03-30T04:52:15.480Z,7.41
2019-03-30T04:53:15.437Z,7.4
2019-03-30T04:54:15.466Z,7.39
2019-03-30T04:55:15.443Z,7.39
2019-03-30T04:56:15.451Z,7.36
2019-03-30T04:57:15.472Z,7.34
2019-03-30T04:58:15.469Z,7.32
2019-03-30T04:59:15.444Z,7.29
2019-03-30T05:00:15.495Z,7.32
2019-03-30T05:01:15.505Z,7.33
2019-03-30T05:02:15.513Z,7.33
2019-03-30T05:03:15.399Z,7.34
2019-03-30T05:04:15.558Z,7.31
2019-03-30T05:05:15.413Z,7.35
2019-03-30T05:06:15.558Z,7.33
2019-03-30T05:07:15.469Z,7.31
2019-03-30T05:08:15.391Z,7.31
2019-03-30T05:09:15.421Z,7.32
2019-03-30T05:10:15.449Z,7.31
2019-03-30T05:11:15.903Z,7.34
2019-03-30T05:12:15.460Z,7.31
2019-03-30T05:13:15.429Z,7.33
2019-03-30T05:14:15.471Z,7.31
2019-03-30T05:15:15.394Z,7.31
2019-03-30T05:16:15.391Z,7.34
2019-03-30T05:17:15.400Z,7.29
2019-03-30T05:18:15.543Z,7.28
2019-03-30T05:19:15.437Z,7.27
2019-03-30T05:20:15.438Z,7.23
2019-03-30T05:21:15.359Z,7.22
2019-03-30T05:22:17.181Z,7.22
2019-03-30T05:23:15.438Z,7.23
2019-03-30T05:24:15.449Z,7.22
2019-03-30T05:25:15.367Z,7.21
2019-03-30T05:26:15.374Z,7.18
2019-03-30T05:27:15.401Z,7.16
2019-03-30T05:28:15.379Z,7.12
2019-03-30T05:29:15.367Z,7.11
2019-03-30T05:30:15.431Z,7.07
2019-03-30T05:31:15.422Z,7.07
2019-03-30T05:32:15.533Z,7.09
2019-03-30T05:33:15.344Z,7.09
2019-03-30T05:34:15.349Z,7.07
2019-03-30T05:35:15.422Z,7.03
2019-03-30T05:36:15.436Z,7.02
2019-03-30T05:37:15.402Z,7
2019-03-30T05:38:15.379Z,7.02
2019-03-30T05:39:15.430Z,7
2019-03-30T05:40:15.352Z,6.97
2019-03-30T05:41:15.360Z,7.01
2019-03-30T05:42:15.363Z,6.99
2019-03-30T05:43:15.410Z,7
2019-03-30T05:44:15.348Z,7.01
2019-03-30T05:45:16.822Z,7.02
2019-03-30T05:46:15.333Z,7.03
2019-03-30T05:47:15.371Z,7.04
2019-03-30T05:48:15.445Z,7.05
2019-03-30T05:49:15.338Z,7.05
2019-03-30T05:50:15.365Z,7.06
2019-03-30T05:51:15.318Z,7.09
2019-03-30T05:52:27.282Z,7.11
2019-03-30T05:53:15.526Z,7.12
2019-03-30T05:54:15.873Z,7.11
2019-03-30T05:55:15.445Z,7.11
2019-03-30T05:56:15.342Z,7.1
2019-03-30T05:57:15.370Z,7.07
2019-03-30T05:58:15.356Z,7.09
2019-03-30T05:59:15.334Z,7.11
2019-03-30T06:00:15.353Z,7.12
2019-03-30T06:01:15.359Z,7.12
2019-03-30T06:02:15.356Z,7.14
2019-03-30T06:03:15.321Z,7.14
2019-03-30T06:04:15.388Z,7.17
2019-03-30T06:05:15.388Z,7.17
2019-03-30T06:06:15.370Z,7.18
2019-03-30T06:07:15.319Z,7.2
2019-03-30T06:08:15.358Z,7.21
2019-03-30T06:09:15.346Z,7.22
2019-03-30T06:10:15.299Z,7.23
2019-03-30T06:11:15.320Z,7.22
2019-03-30T06:12:15.322Z,7.21
2019-03-30T06:13:15.303Z,7.19
2019-03-30T06:14:15.471Z,7.19
2019-03-30T06:15:15.292Z,7.19
2019-03-30T06:16:15.380Z,7.24
2019-03-30T06:17:15.390Z,7.24
2019-03-30T06:18:15.314Z,7.26
2019-03-30T06:19:15.462Z,7.29
2019-03-30T06:20:15.303Z,7.3
2019-03-30T06:21:15.454Z,7.32
2019-03-30T06:22:15.635Z,7.35
2019-03-30T06:23:15.324Z,7.34
2019-03-30T06:24:15.336Z,7.36
2019-03-30T06:25:15.360Z,7.37
2019-03-30T06:26:15.305Z,7.42
2019-03-30T06:27:15.322Z,7.45
2019-03-30T06:28:15.276Z,7.45
2019-03-30T06:29:15.281Z,7.47
2019-03-30T06:30:15.277Z,7.49
2019-03-30T06:31:15.292Z,7.49
2019-03-30T06:32:15.398Z,7.5
2019-03-30T06:33:15.429Z,7.54
2019-03-30T06:34:15.304Z,7.59
2019-03-30T06:35:15.312Z,7.6
2019-03-30T06:36:15.325Z,7.63
2019-03-30T06:37:15.823Z,7.67
2019-03-30T06:38:15.322Z,7.72
2019-03-30T06:39:15.328Z,7.72
2019-03-30T06:40:15.349Z,7.75
2019-03-30T06:41:15.315Z,7.8
2019-03-30T06:42:15.295Z,7.84
2019-03-30T06:43:15.298Z,7.86
2019-03-30T06:44:15.468Z,7.87
2019-03-30T06:45:15.268Z,7.91
2019-03-30T06:46:15.377Z,7.93
2019-03-30T06:47:15.307Z,7.98
2019-03-30T06:48:15.363Z,7.99
2019-03-30T06:49:15.293Z,8.03
2019-03-30T06:50:15.299Z,8.04
2019-03-30T06:51:15.301Z,8.09
2019-03-30T06:52:15.276Z,8.14
2019-03-30T06:53:17.758Z,8.16
2019-03-30T06:54:15.346Z,8.2
2019-03-30T06:55:15.391Z,8.22
2019-03-30T06:56:15.353Z,8.28
2019-03-30T06:57:15.422Z,8.29
2019-03-30T06:58:15.595Z,8.35
2019-03-30T06:59:15.393Z,8.37
2019-03-30T07:00:15.359Z,8.4
2019-03-30T07:01:15.485Z,8.45
2019-03-30T07:02:15.507Z,8.5
2019-03-30T07:03:15.327Z,8.53
2019-03-30T07:04:15.241Z,8.55
2019-03-30T07:05:15.232Z,8.63
2019-03-30T07:06:15.259Z,8.65
2019-03-30T07:07:15.329Z,8.7
2019-03-30T07:08:15.401Z,8.74
2019-03-30T07:09:15.274Z,8.76
2019-03-30T07:10:15.395Z,8.83
2019-03-30T07:11:21.801Z,8.85
2019-03-30T07:12:15.222Z,8.91
2019-03-30T07:13:15.287Z,8.95
2019-03-30T07:14:15.282Z,8.98
2019-03-30T07:15:15.244Z,9.03
2019-03-30T07:16:15.220Z,9.1
2019-03-30T07:17:15.377Z,9.12
2019-03-30T07:18:15.255Z,9.16
2019-03-30T07:19:15.229Z,9.19
2019-03-30T07:20:15.479Z,9.23
2019-03-30T07:21:15.218Z,9.28
2019-03-30T07:22:15.253Z,9.3
2019-03-30T07:23:15.277Z,9.35
2019-03-30T07:24:15.269Z,9.41
2019-03-30T07:25:15.293Z,9.43
2019-03-30T07:26:15.275Z,9.48
2019-03-30T07:27:15.350Z,9.54
2019-03-30T07:28:15.288Z,9.6
2019-03-30T07:29:15.315Z,9.61
2019-03-30T07:30:15.550Z,9.67
2019-03-30T07:31:15.271Z,9.72
2019-03-30T07:32:15.347Z,9.78
2019-03-30T07:33:17.513Z,9.83
2019-03-30T07:34:15.233Z,9.88
2019-03-30T07:35:15.257Z,9.92
2019-03-30T07:36:15.178Z,9.95
2019-03-30T07:37:15.307Z,9.97
2019-03-30T07:38:15.422Z,10.03
2019-03-30T07:39:15.307Z,10.07
2019-03-30T07:40:15.216Z,10.1
2019-03-30T07:41:15.276Z,10.15
2019-03-30T07:42:15.355Z,10.18
2019-03-30T07:43:15.313Z,10.22
2019-03-30T07:44:15.349Z,10.25
2019-03-30T07:45:15.200Z,10.26
2019-03-30T07:46:15.180Z,10.3
2019-03-30T07:47:15.287Z,10.34
2019-03-30T07:48:15.286Z,10.35
2019-03-30T07:49:15.268Z,10.41
2019-03-30T07:50:16.366Z,10.42
2019-03-30T07:51:15.296Z,10.46
2019-03-30T07:52:15.334Z,10.5
2019-03-30T07:53:27.430Z,10.53
2019-03-30T07:54:15.324Z,10.56
2019-03-30T07:55:15.250Z,10.58
2019-03-30T07:56:15.176Z,10.6
2019-03-30T07:57:17.938Z,10.65
2019-03-30T07:58:15.298Z,10.65
2019-03-30T07:59:15.224Z,10.67
2019-03-30T08:00:18.438Z,10.7
2019-03-30T08:01:15.265Z,10.7
2019-03-30T08:02:15.267Z,10.76
2019-03-30T08:03:15.516Z,10.8
2019-03-30T08:04:15.200Z,10.83
2019-03-30T08:05:15.182Z,10.9
2019-03-30T08:06:15.179Z,10.92
2019-03-30T08:07:15.342Z,10.94
2019-03-30T08:08:15.166Z,10.95
2019-03-30T08:09:15.147Z,10.97
2019-03-30T08:10:15.211Z,11.06
2019-03-30T08:11:15.249Z,11.09
2019-03-30T08:12:15.180Z,11.1
2019-03-30T08:13:15.290Z,11.14
2019-03-30T08:14:15.201Z,11.16
2019-03-30T08:15:15.166Z,11.21
2019-03-30T08:16:15.195Z,11.25
2019-03-30T08:17:15.270Z,11.28
2019-03-30T08:18:15.125Z,11.33
2019-03-30T08:19:15.141Z,11.33
2019-03-30T08:20:15.168Z,11.37
2019-03-30T08:21:15.124Z,11.44
2019-03-30T08:22:15.169Z,11.47
2019-03-30T08:23:15.122Z,11.51
2019-03-30T08:24:15.166Z,11.53
2019-03-30T08:25:15.401Z,11.59
2019-03-30T08:26:15.134Z,11.66
2019-03-30T08:27:15.152Z,11.7
2019-03-30T08:28:15.147Z,11.7
2019-03-30T08:29:15.123Z,11.7
2019-03-30T08:30:15.102Z,11.79
2019-03-30T08:31:15.137Z,11.82
2019-03-30T08:32:15.095Z,11.84
2019-03-30T08:33:15.190Z,11.84
2019-03-30T08:34:15.289Z,11.88
2019-03-30T08:35:15.145Z,11.92
2019-03-30T08:36:15.135Z,11.94
2019-03-30T08:37:15.208Z,12
2019-03-30T08:38:15.222Z,12.01
2019-03-30T08:39:15.181Z,12.01
2019-03-30T08:40:15.230Z,12.06
2019-03-30T08:41:15.222Z,12.11
2019-03-30T08:42:15.125Z,12.15
2019-03-30T08:43:15.183Z,12.21
2019-03-30T08:44:15.140Z,12.21
2019-03-30T08:45:15.119Z,12.24
2019-03-30T08:46:15.211Z,12.25
2019-03-30T08:47:15.192Z,12.26
2019-03-30T08:48:16.631Z,12.22
2019-03-30T08:49:15.149Z,12.24
2019-03-30T08:50:15.082Z,12.3
2019-03-30T08:51:15.219Z,12.37
2019-03-30T08:52:15.094Z,12.4
2019-03-30T08:53:15.136Z,12.42
2019-03-30T08:54:17.750Z,12.43
2019-03-30T08:55:15.134Z,12.47
2019-03-30T08:56:15.121Z,12.57
2019-03-30T08:57:15.161Z,12.63
2019-03-30T08:58:15.229Z,12.67
2019-03-30T08:59:15.070Z,12.71
2019-03-30T09:00:15.099Z,12.72
2019-03-30T09:01:15.160Z,12.76
2019-03-30T09:02:15.108Z,12.78
2019-03-30T09:03:15.151Z,12.8
2019-03-30T09:04:15.087Z,12.86
2019-03-30T09:05:15.119Z,12.89
2019-03-30T09:06:15.162Z,12.89
2019-03-30T09:07:15.199Z,12.93
2019-03-30T09:08:15.580Z,12.95
2019-03-30T09:09:15.107Z,12.96
2019-03-30T09:10:15.092Z,13
2019-03-30T09:11:15.139Z,13.06
2019-03-30T09:12:15.097Z,13.07
2019-03-30T09:13:15.409Z,13.11
2019-03-30T09:14:15.069Z,13.13
2019-03-30T09:15:15.067Z,13.15
2019-03-30T09:16:15.058Z,13.18
2019-03-30T09:17:15.188Z,13.2
2019-03-30T09:18:15.553Z,13.21
2019-03-30T09:19:15.068Z,13.25
2019-03-30T09:20:15.074Z,13.33
2019-03-30T09:21:15.073Z,13.4
2019-03-30T09:22:15.057Z,13.41
2019-03-30T09:23:15.070Z,13.47
2019-03-30T09:24:15.104Z,13.49
2019-03-30T09:25:15.952Z,13.51
2019-03-30T09:26:17.180Z,13.52
2019-03-30T09:27:15.175Z,13.56
2019-03-30T09:28:15.047Z,13.64
2019-03-30T09:29:15.436Z,13.71
2019-03-30T09:30:15.077Z,13.75
2019-03-30T09:31:15.125Z,13.78
2019-03-30T09:32:15.542Z,13.77
2019-03-30T09:33:15.135Z,13.78
2019-03-30T09:34:15.187Z,13.82
2019-03-30T09:35:15.201Z,13.76
2019-03-30T09:36:15.056Z,13.79
2019-03-30T09:37:15.099Z,13.82
2019-03-30T09:38:15.679Z,13.81
2019-03-30T09:39:16.135Z,13.86
2019-03-30T09:40:15.059Z,13.93
2019-03-30T09:41:15.119Z,13.93
2019-03-30T09:42:15.220Z,13.97
2019-03-30T09:43:15.251Z,13.98
2019-03-30T09:44:15.077Z,14.04
2019-03-30T09:45:15.053Z,14.07
2019-03-30T09:46:15.038Z,14.16
2019-03-30T09:47:15.139Z,14.19
2019-03-30T09:48:15.119Z,14.26
2019-03-30T09:49:15.035Z,14.3
2019-03-30T09:50:15.067Z,14.32
2019-03-30T09:51:15.135Z,14.41
2019-03-30T09:52:15.019Z,14.46
2019-03-30T09:53:15.092Z,14.54
2019-03-30T09:54:24.552Z,14.53
2019-03-30T09:55:15.025Z,14.57
2019-03-30T09:56:14.991Z,14.57
2019-03-30T09:57:14.997Z,14.56
2019-03-30T09:58:15.135Z,14.62
2019-03-30T09:59:14.989Z,14.68
2019-03-30T10:00:15.013Z,14.77
2019-03-30T10:01:15.121Z,14.78
2019-03-30T10:02:14.973Z,14.9
2019-03-30T10:03:15.012Z,14.97
2019-03-30T10:04:15.068Z,15.02
2019-03-30T10:05:15.075Z,15.01
2019-03-30T10:06:14.986Z,15.02
2019-03-30T10:07:15.171Z,15.07
2019-03-30T10:08:15.021Z,15.13
2019-03-30T10:09:15.130Z,15.15
2019-03-30T10:10:14.994Z,15.19
2019-03-30T10:11:15.068Z,15.23
2019-03-30T10:12:16.229Z,15.23
2019-03-30T10:13:15.055Z,15.21
2019-03-30T10:14:15.044Z,15.25
2019-03-30T10:15:15.072Z,15.27
2019-03-30T10:16:15.006Z,15.35
2019-03-30T10:17:15.159Z,15.36
2019-03-30T10:18:15.095Z,15.41
2019-03-30T10:19:15.002Z,15.48
2019-03-30T10:20:15.000Z,15.5
2019-03-30T10:21:14.995Z,15.57
2019-03-30T10:22:15.008Z,15.62
2019-03-30T10:23:14.994Z,15.67
2019-03-30T10:24:15.067Z,15.7
2019-03-30T10:25:15.000Z,15.68
2019-03-30T10:26:15.050Z,15.73
2019-03-30T10:27:15.066Z,15.82
2019-03-30T10:28:15.008Z,15.88
2019-03-30T10:29:14.976Z,15.9
2019-03-30T10:30:14.988Z,15.9
2019-03-30T10:31:14.960Z,15.97
2019-03-30T10:32:15.071Z,15.95
2019-03-30T10:33:15.081Z,15.96
2019-03-30T10:34:15.008Z,15.95
2019-03-30T10:35:15.918Z,15.89
2019-03-30T10:36:14.994Z,15.95
2019-03-30T10:37:14.980Z,15.98
2019-03-30T10:38:14.988Z,15.98
2019-03-30T10:39:14.935Z,15.97
2019-03-30T10:40:14.985Z,15.97
2019-03-30T10:41:14.996Z,15.91
2019-03-30T10:42:14.911Z,15.9
2019-03-30T10:43:14.956Z,15.95
2019-03-30T10:44:15.100Z,15.99
2019-03-30T10:45:14.977Z,16.05
2019-03-30T10:46:14.930Z,16.11
2019-03-30T10:47:16.738Z,16.14
2019-03-30T10:48:14.955Z,16.14
2019-03-30T10:49:15.127Z,16.18
2019-03-30T10:50:14.913Z,16.22
2019-03-30T10:51:14.978Z,16.27
2019-03-30T10:52:14.970Z,16.3
2019-03-30T10:53:14.941Z,16.34
2019-03-30T10:54:14.934Z,16.34
2019-03-30T10:55:15.042Z,16.34
2019-03-30T10:56:15.163Z,16.38
2019-03-30T10:57:14.960Z,16.43
2019-03-30T10:58:14.908Z,16.5
2019-03-30T10:59:14.893Z,16.59
2019-03-30T11:00:14.925Z,16.62
2019-03-30T11:01:14.902Z,16.68
2019-03-30T11:02:14.898Z,16.74
2019-03-30T11:03:14.953Z,16.79
2019-03-30T11:04:14.943Z,16.83
2019-03-30T11:05:14.954Z,16.88
2019-03-30T11:06:14.914Z,16.94
2019-03-30T11:07:14.912Z,16.96
2019-03-30T11:08:14.882Z,17.01
2019-03-30T11:09:14.902Z,17.02
2019-03-30T11:10:14.911Z,17.12
2019-03-30T11:11:14.976Z,17.14
2019-03-30T11:12:14.882Z,17.17
2019-03-30T11:13:14.981Z,17.2
2019-03-30T11:14:14.908Z,17.23
2019-03-30T11:15:14.921Z,17.25
2019-03-30T11:16:14.901Z,17.29
2019-03-30T11:17:14.909Z,17.31
2019-03-30T11:18:14.980Z,17.37
2019-03-30T11:19:14.907Z,17.32
2019-03-30T11:20:15.907Z,17.35
2019-03-30T11:21:14.948Z,17.34
2019-03-30T11:22:14.963Z,17.36
2019-03-30T11:23:14.874Z,17.35
2019-03-30T11:24:14.888Z,17.28
2019-03-30T11:25:14.872Z,17.34
2019-03-30T11:26:15.002Z,17.41
2019-03-30T11:27:14.951Z,17.46
2019-03-30T11:28:14.887Z,17.48
2019-03-30T11:29:14.914Z,17.54
2019-03-30T11:30:15.033Z,17.58
2019-03-30T11:31:14.875Z,17.59
2019-03-30T11:32:14.861Z,17.62
2019-03-30T11:33:14.932Z,17.73
2019-03-30T11:34:14.950Z,17.81
2019-03-30T11:35:14.919Z,17.83
2019-03-30T11:36:19.039Z,17.87
2019-03-30T11:37:14.871Z,17.94
2019-03-30T11:38:15.058Z,18
2019-03-30T11:39:14.862Z,18.04
2019-03-30T11:40:14.874Z,18.11
2019-03-30T11:41:14.922Z,18.15
2019-03-30T11:42:14.856Z,18.19
2019-03-30T11:43:14.942Z,18.16
2019-03-30T11:44:14.920Z,18.18
2019-03-30T11:45:14.870Z,18.24
2019-03-30T11:46:15.001Z,18.28
2019-03-30T11:47:14.865Z,18.33
2019-03-30T11:48:14.897Z,18.37
2019-03-30T11:49:14.933Z,18.36
2019-03-30T11:50:14.886Z,18.43
2019-03-30T11:51:14.897Z,18.49
2019-03-30T11:52:14.893Z,18.56
2019-03-30T11:53:14.831Z,18.58
2019-03-30T11:54:14.819Z,18.62
2019-03-30T11:55:22.786Z,18.69
2019-03-30T11:56:14.875Z,18.69
2019-03-30T11:57:14.870Z,18.74
2019-03-30T11:58:14.838Z,18.76
2019-03-30T11:59:14.838Z,18.81
2019-03-30T12:00:14.902Z,18.85
2019-03-30T12:01:14.914Z,18.88
2019-03-30T12:02:28.704Z,18.9
2019-03-30T12:03:14.893Z,18.96
2019-03-30T12:04:14.892Z,18.91
2019-03-30T12:05:14.855Z,18.83
2019-03-30T12:06:14.866Z,18.84
2019-03-30T12:07:14.855Z,18.85
2019-03-30T12:08:14.926Z,18.83
2019-03-30T12:09:14.862Z,18.84
2019-03-30T12:10:14.838Z,18.85
2019-03-30T12:11:14.853Z,18.92
2019-03-30T12:12:14.796Z,18.94
2019-03-30T12:13:14.858Z,18.89
2019-03-30T12:14:14.857Z,18.8
2019-03-30T12:15:14.981Z,18.87
2019-03-30T12:16:14.848Z,18.95
2019-03-30T12:17:15.004Z,19.03
2019-03-30T12:18:14.955Z,19.1
2019-03-30T12:19:14.885Z,19.14
2019-03-30T12:20:14.835Z,19.13
2019-03-30T12:21:14.905Z,19.18
2019-03-30T12:22:15.247Z,19.24
2019-03-30T12:23:15.167Z,19.29
2019-03-30T12:24:14.826Z,19.36
2019-03-30T12:25:14.757Z,19.26
2019-03-30T12:26:14.806Z,19.27
2019-03-30T12:27:15.951Z,19.34
2019-03-30T12:28:14.839Z,19.41
2019-03-30T12:29:14.823Z,19.39
2019-03-30T12:30:14.845Z,19.42
2019-03-30T12:31:14.953Z,19.3
2019-03-30T12:32:14.833Z,19.4
2019-03-30T12:33:14.835Z,19.48
2019-03-30T12:34:14.924Z,19.55
2019-03-30T12:35:14.807Z,19.53
2019-03-30T12:36:14.925Z,19.63
2019-03-30T12:37:14.773Z,19.69
2019-03-30T12:38:14.766Z,19.67
2019-03-30T12:39:14.760Z,19.69
2019-03-30T12:40:14.815Z,19.74
2019-03-30T12:41:14.818Z,19.8
2019-03-30T12:42:14.977Z,19.74
2019-03-30T12:43:14.823Z,19.79
2019-03-30T12:44:14.975Z,19.58
2019-03-30T12:45:15.190Z,19.68
2019-03-30T12:46:15.112Z,19.77
2019-03-30T12:47:14.811Z,19.73
2019-03-30T12:48:14.786Z,19.72
2019-03-30T12:49:15.057Z,19.69
2019-03-30T12:50:14.803Z,19.72
2019-03-30T12:51:14.817Z,19.79
2019-03-30T12:52:14.891Z,19.84
2019-03-30T12:53:14.747Z,19.91
2019-03-30T12:54:14.843Z,19.86
2019-03-30T12:55:14.906Z,19.9
2019-03-30T12:56:14.803Z,19.9
2019-03-30T12:57:14.824Z,19.92
2019-03-30T12:58:15.010Z,19.85
2019-03-30T12:59:14.926Z,19.87
2019-03-30T13:00:14.822Z,19.97
2019-03-30T13:01:15.976Z,20.03
2019-03-30T13:02:14.779Z,20.13
2019-03-30T13:03:14.878Z,20.29
2019-03-30T13:04:14.787Z,20.45
2019-03-30T13:05:14.796Z,20.62
2019-03-30T13:06:14.763Z,20.74